Weather History for KHAI - February, 2010

Change the Weather History Date:

Thursday, February 18, 2010

  Actual Average (KAZO) Record (KAZO)
Temperature  
Mean Temperature 34 °F 27 °F  
Max Temperature 35 °F 35 °F 61 °F (1961)
Min Temperature 28 °F 20 °F -4 °F (1979)
Degree Days  
Heating Degree Days 32 38  
Month to date heating degree days 705  
Since 1 July heating degree days 4413  
Cooling Degree Days 0 0  
Month to date cooling degree days 0  
Year to date cooling degree days 0  
Moisture  
Dew Point 27 °F    
Average Humidity 79    
Maximum Humidity 100    
Minimum Humidity 48    
Precipitation  
Precipitation 0.00 in 0.05 in 0.28 in (1976)
Month to date precipitation 0.86  
Year to date precipitation 2.65  
Sea Level Pressure  
Sea Level Pressure 29.95 in    
Wind  
Wind Speed 11 mph (WNW)    
Max Wind Speed 20 mph    
Max Gust Speed 24 mph    
Visibility 10 miles    
Events      
T = Trace of Precipitation, MM = Missing Value Source: NWS Daily Summary

Daily Weather History Graph

Daily Weather History Graph

Search for Another Location

Airport or City:

Trip Planner

Search our weather history database for the weather conditions in past years. The results will help you decide how hot, cold, wet, or windy it might be!

Date:

Astronomy

Feb. 18, 2010 Rise Set
Actual Time 7:34 AM EST 6:19 PM EST
Civil Twilight 7:05 AM EST 6:47 PM EST
Nautical Twilight 6:33 AM EST 7:20 PM EST
Astronomical Twilight 6:00 AM EST 7:52 PM EST
Moon 9:06 AM EST (2/18) 11:12 PM EST (2/18)
Length of Visible Light 11h 42m
Length of Day
10h 45m
Waxing Crescent, 18% of the Moon is Illuminated
Feb 18
Waxing Crescent
Feb 21
First Quarter
Feb 28
Full
Mar 7
Last Quarter
Mar 15
New

Hourly Weather History & Observations

Time (EST) Temp. Windchill Dew Point Humidity Pressure Visibility Wind Dir Wind Speed Gust Speed Precip Events Conditions
12:16 AM 32.0 °F 23.6 °F 32.0 °F 100% 29.90 in 10.0 mi WNW 10.4 mph - N/A   Overcast
12:36 AM 32.0 °F 24.2 °F 32.0 °F 100% 29.90 in 10.0 mi WNW 9.2 mph - N/A   Overcast
12:55 AM 32.0 °F 23.6 °F 32.0 °F 100% 29.90 in 10.0 mi WNW 10.4 mph - N/A   Overcast
1:17 AM 32.0 °F 24.8 °F 32.0 °F 100% 29.91 in 10.0 mi WNW 8.1 mph - N/A   Overcast
1:36 AM 32.0 °F 23.6 °F 32.0 °F 100% 29.91 in 10.0 mi WNW 10.4 mph - N/A   Overcast
1:55 AM 32.0 °F 24.8 °F 32.0 °F 100% 29.91 in 10.0 mi WNW 8.1 mph - N/A   Overcast
2:16 AM 32.0 °F 24.8 °F 32.0 °F 100% 29.92 in 10.0 mi WNW 8.1 mph - N/A   Overcast
2:36 AM 32.0 °F 24.2 °F 32.0 °F 100% 29.92 in 10.0 mi WNW 9.2 mph - N/A   Overcast
2:55 AM 33.8 °F 26.4 °F 32.0 °F 93% 29.92 in 10.0 mi WNW 9.2 mph - N/A   Overcast
3:16 AM 33.8 °F 25.8 °F 32.0 °F 93% 29.91 in 10.0 mi NW 10.4 mph - N/A   Overcast
3:36 AM 33.8 °F 25.3 °F 32.0 °F 93% 29.91 in 10.0 mi WNW 11.5 mph - N/A   Overcast
3:55 AM 33.8 °F 27.0 °F 32.0 °F 93% 29.91 in 10.0 mi WNW 8.1 mph - N/A   Overcast
4:16 AM 33.8 °F 25.8 °F 32.0 °F 93% 29.91 in 10.0 mi WNW 10.4 mph - N/A   Overcast
4:37 AM 33.8 °F 27.0 °F 32.0 °F 93% 29.92 in 10.0 mi WNW 8.1 mph - N/A   Overcast
4:55 AM 33.8 °F 25.8 °F 32.0 °F 93% 29.92 in 10.0 mi WNW 10.4 mph - N/A   Overcast
5:16 AM 33.8 °F 25.3 °F 30.2 °F 87% 29.92 in 10.0 mi WNW 11.5 mph 19.6 mph N/A   Overcast
5:36 AM 32.0 °F 24.2 °F 30.2 °F 93% 29.93 in 10.0 mi WNW 9.2 mph - N/A   Overcast
5:55 AM 32.0 °F 23.0 °F 30.2 °F 93% 29.93 in 10.0 mi WNW 11.5 mph - N/A   Overcast
6:16 AM 32.0 °F 24.2 °F 30.2 °F 93% 29.94 in 10.0 mi WNW 9.2 mph - N/A   Overcast
6:36 AM 32.0 °F 24.2 °F 30.2 °F 93% 29.94 in 10.0 mi NW 9.2 mph - N/A   Overcast
6:55 AM 32.0 °F 24.2 °F 30.2 °F 93% 29.95 in 10.0 mi NW 9.2 mph - N/A   Overcast
7:16 AM 32.0 °F 24.8 °F 30.2 °F 93% 29.95 in 10.0 mi WNW 8.1 mph - N/A   Overcast
7:36 AM 32.0 °F 25.6 °F 30.2 °F 93% 29.95 in 10.0 mi WNW 6.9 mph - N/A   Overcast
7:55 AM 32.0 °F 25.6 °F 30.2 °F 93% 29.95 in 10.0 mi NW 6.9 mph - N/A   Overcast
8:16 AM 32.0 °F 24.8 °F 30.2 °F 93% 29.96 in 10.0 mi WNW 8.1 mph - N/A   Overcast
8:36 AM 32.0 °F 25.6 °F 30.2 °F 93% 29.97 in 10.0 mi WNW 6.9 mph - N/A   Overcast
8:55 AM 32.0 °F 24.8 °F 30.2 °F 93% 29.97 in 10.0 mi WNW 8.1 mph - N/A   Overcast
9:16 AM 32.0 °F 26.4 °F 28.4 °F 87% 29.98 in 10.0 mi WNW 5.8 mph - N/A   Mostly Cloudy
9:36 AM 33.8 °F 25.8 °F 28.4 °F 81% 29.98 in 10.0 mi NW 10.4 mph 16.1 mph N/A   Mostly Cloudy
9:55 AM 33.8 °F 24.3 °F 28.4 °F 81% 29.98 in 10.0 mi WNW 13.8 mph - N/A   Overcast
10:16 AM 33.8 °F 26.4 °F 28.4 °F 81% 29.99 in 10.0 mi NW 9.2 mph - N/A   Overcast
10:36 AM 33.8 °F 24.3 °F 28.4 °F 81% 30.00 in 10.0 mi WNW 13.8 mph 20.7 mph N/A   Overcast
10:55 AM 35.6 °F 27.1 °F 28.4 °F 75% 29.99 in 10.0 mi WNW 12.7 mph - N/A   Mostly Cloudy
11:16 AM 35.6 °F 27.1 °F 28.4 °F 75% 29.99 in 10.0 mi West 12.7 mph - N/A   Scattered Clouds
11:36 AM 35.6 °F 25.9 °F 26.6 °F 70% 29.99 in 10.0 mi West 16.1 mph - N/A   Scattered Clouds
11:55 AM 35.6 °F 26.6 °F 26.6 °F 70% 29.98 in 10.0 mi WNW 13.8 mph - N/A   Scattered Clouds
12:16 PM 35.6 °F 25.9 °F 24.8 °F 65% 29.98 in 10.0 mi West 16.1 mph - N/A   Clear
12:36 PM 35.6 °F 27.1 °F 24.8 °F 65% 29.98 in 10.0 mi WNW 12.7 mph 18.4 mph N/A   Clear
12:55 PM 35.6 °F 26.2 °F 23.0 °F 60% 29.97 in 10.0 mi WNW 15.0 mph 20.7 mph N/A   Clear
1:16 PM 35.6 °F 25.5 °F 24.8 °F 65% 29.97 in 10.0 mi West 17.3 mph 20.7 mph N/A   Clear
1:36 PM 35.6 °F 26.2 °F 23.0 °F 60% 29.97 in 10.0 mi WNW 15.0 mph 18.4 mph N/A   Clear
1:55 PM 35.6 °F 25.9 °F 23.0 °F 60% 29.96 in 10.0 mi WNW 16.1 mph 20.7 mph N/A   Clear
2:16 PM 35.6 °F 26.2 °F 23.0 °F 60% 29.96 in 10.0 mi WNW 15.0 mph - N/A   Clear
2:36 PM 35.6 °F 26.2 °F 21.2 °F 56% 29.96 in 10.0 mi WNW 15.0 mph 19.6 mph N/A   Clear
2:55 PM 35.6 °F 25.9 °F 21.2 °F 56% 29.95 in 10.0 mi WNW 16.1 mph - N/A   Clear
3:16 PM 35.6 °F 25.2 °F 19.4 °F 52% 29.95 in 10.0 mi West 18.4 mph - N/A   Clear
3:36 PM 35.6 °F 24.8 °F 19.4 °F 52% 29.96 in 10.0 mi West 19.6 mph 24.2 mph N/A   Clear
3:55 PM 35.6 °F 25.5 °F 19.4 °F 52% 29.96 in 10.0 mi WNW 17.3 mph - N/A   Clear
4:16 PM 35.6 °F 26.2 °F 17.6 °F 48% 29.96 in 10.0 mi WNW 15.0 mph - N/A   Clear
4:36 PM 33.8 °F 24.3 °F 19.4 °F 56% 29.97 in 10.0 mi WNW 13.8 mph 23.0 mph N/A   Clear
4:55 PM 33.8 °F 24.8 °F 21.2 °F 60% 29.97 in 10.0 mi WNW 12.7 mph - N/A   Clear
5:16 PM 33.8 °F 26.4 °F 19.4 °F 56% 29.97 in 10.0 mi West 9.2 mph - N/A   Clear
5:36 PM 33.8 °F 24.8 °F 21.2 °F 60% 29.98 in 10.0 mi WNW 12.7 mph - N/A   Clear
5:55 PM 32.0 °F 24.2 °F 21.2 °F 64% 29.98 in 10.0 mi WNW 9.2 mph - N/A   Clear
6:16 PM 32.0 °F 25.6 °F 21.2 °F 64% 29.99 in 10.0 mi WNW 6.9 mph - N/A   Clear
6:36 PM 32.0 °F 24.8 °F 21.2 °F 64% 29.99 in 10.0 mi WNW 8.1 mph - N/A   Clear
6:55 PM 32.0 °F 26.4 °F 21.2 °F 64% 30.00 in 10.0 mi West 5.8 mph - N/A   Clear
7:16 PM 28.4 °F 24.6 °F 19.4 °F 69% 30.01 in 10.0 mi West 3.5 mph - N/A   Clear
7:36 PM 28.4 °F 21.2 °F 19.4 °F 69% 30.01 in 10.0 mi WNW 6.9 mph - N/A   Clear
7:55 PM 26.6 °F 19.1 °F 19.4 °F 74% 30.01 in 10.0 mi West 6.9 mph - N/A   Clear
8:16 PM 26.6 °F 20.0 °F 19.4 °F 74% 30.01 in 10.0 mi WNW 5.8 mph - N/A   Clear
8:36 PM 26.6 °F 21.2 °F 19.4 °F 74% 30.02 in 10.0 mi WNW 4.6 mph - N/A   Clear
8:55 PM 26.6 °F 22.6 °F 21.2 °F 80% 30.02 in 10.0 mi West 3.5 mph - N/A   Clear
9:16 PM 26.6 °F 21.2 °F 21.2 °F 80% 30.02 in 10.0 mi WSW 4.6 mph - N/A   Clear
9:36 PM 26.6 °F 22.6 °F 21.2 °F 80% 30.02 in 10.0 mi West 3.5 mph - N/A   Clear
9:55 PM 26.6 °F 21.2 °F 21.2 °F 80% 30.02 in 10.0 mi WSW 4.6 mph - N/A   Clear
10:16 PM 26.6 °F 22.6 °F 21.2 °F 80% 30.02 in 10.0 mi WSW 3.5 mph - N/A   Clear
10:36 PM 26.6 °F 22.6 °F 21.2 °F 80% 30.02 in 10.0 mi WSW 3.5 mph - N/A   Clear
10:55 PM 24.8 °F 20.5 °F 19.4 °F 80% 30.03 in 10.0 mi West 3.5 mph - N/A   Clear
11:16 PM 21.2 °F - 17.6 °F 86% 30.03 in 10.0 mi Calm Calm - N/A   Clear
11:36 PM 21.2 °F - 19.4 °F 93% 30.04 in 10.0 mi Calm Calm - N/A   Clear
11:55 PM 19.4 °F - 17.6 °F 93% 30.04 in 10.0 mi Calm Calm - N/A   Clear